Kezdőlap
METAR-TAF:

METAR-TAF

Repülőterek :

Fairmont Municipal Airport

Fairmont, Minnesota, Amerikai Egyesült Államok

földrajzi szélesség: 43-39N, földrajzi hosszúság: 094-25W, magasság: 354 m

Jelenlegi meteorológiai megfigyelések

A jelentés 1 órával és 4 perccel ezelõtt készült, 13:56 UTC
Északnyugati szél 17 kt széllökések: 23 kt
Hőmérséklet 9°C
Páratartalom 71%
Légköri nyomás 1022 hPa
Látótávolság: 16.1 km
Szakadozott felhőzet 2200 lábon
Szakadozott felhőzet 3600 lábon

METAR: KFRM 011356Z AUTO 32017G23KT 10SM BKN022 BKN036 09/04 A3017 RMK AO2 PK WND 33026/1339 SLP223 T00890039

Idő: 10:00 (15:00 UTC)


TAF: hiányzik

Meteorológiai megfigyelések és előrejelzések több, mint 4000 repülőtéren (METAR és TAF jelentéseket).

A térképen piros és sárga pontok jelzik az elérhető meteorológiai állomásokat.

Mozgassa az egeret a pont fölött, hogy megjelenjen az állomás neve.

Azután kattintson az időjárási megfigyelések és előrejelzések megtekintéséhez.

A térkép megváltoztatása: kattintson a fekete keresztel jelölt zöld gombra ráközelítéshez, a vonallal jelölt zöld gombra távolításhoz, vagy a zöld nyilakra a szomszédos térképek eléréséhez.


METAR-TAF: